createdAt,value
2023-04-21T00:00:29.229Z,65
2023-04-21T00:01:00.290Z,66
2023-04-21T00:01:16.601Z,65
2023-04-21T00:01:37.508Z,64
2023-04-21T00:02:04.023Z,64
2023-04-21T00:02:36.713Z,66
2023-04-21T00:03:07.993Z,67
2023-04-21T00:03:36.928Z,68
2023-04-21T00:03:56.658Z,68
2023-04-21T00:04:28.101Z,69
2023-04-21T00:04:59.755Z,70
2023-04-21T00:05:17.252Z,68
2023-04-21T00:05:37.668Z,67
2023-04-21T00:06:04.213Z,67
2023-04-21T00:06:36.598Z,66
2023-04-21T00:07:07.794Z,67
2023-04-21T00:07:36.834Z,67
2023-04-21T00:07:57.111Z,67
2023-04-21T00:08:27.880Z,65
2023-04-21T00:08:59.715Z,64
2023-04-21T00:09:16.687Z,63
2023-04-21T00:09:37.727Z,63
2023-04-21T00:10:05.659Z,64
2023-04-21T00:10:36.672Z,64
2023-04-21T00:11:08.151Z,64
2023-04-21T00:11:36.902Z,64
2023-04-21T00:11:56.545Z,63
2023-04-21T00:12:27.820Z,63
2023-04-21T00:12:59.779Z,64
2023-04-21T00:13:16.588Z,63
2023-04-21T00:13:37.545Z,63
2023-04-21T00:14:03.749Z,63
2023-04-21T00:14:36.456Z,61
2023-04-21T00:15:09.429Z,63
2023-04-21T00:15:36.727Z,63
2023-04-21T00:15:56.866Z,64
2023-04-21T00:16:27.804Z,65
2023-04-21T00:16:59.708Z,65
2023-04-21T00:17:16.555Z,66
2023-04-21T00:17:37.628Z,67
2023-04-21T00:18:03.786Z,67
2023-04-21T00:18:36.887Z,66
2023-04-21T00:19:07.931Z,66
2023-04-21T00:19:37.095Z,66
2023-04-21T00:19:56.396Z,67
2023-04-21T00:20:28.229Z,68
2023-04-21T00:20:59.730Z,68
2023-04-21T00:21:16.545Z,69
2023-04-21T00:21:37.651Z,69
2023-04-21T00:22:03.700Z,69
2023-04-21T00:22:36.729Z,69
2023-04-21T00:23:07.894Z,71
2023-04-21T00:23:36.567Z,72
2023-04-21T00:23:56.584Z,71
2023-04-21T00:24:27.742Z,70
2023-04-21T00:24:59.648Z,69
2023-04-21T00:25:16.907Z,68
2023-04-21T00:25:37.512Z,69
2023-04-21T00:26:03.784Z,69
2023-04-21T00:26:36.485Z,69
2023-04-21T00:27:07.879Z,68
2023-04-21T00:27:36.712Z,69
2023-04-21T00:27:56.384Z,69
2023-04-21T00:28:27.832Z,69
2023-04-21T00:28:59.769Z,72
2023-04-21T00:29:16.652Z,72
2023-04-21T00:29:37.599Z,71
2023-04-21T00:30:05.797Z,70
2023-04-21T00:30:36.813Z,68
2023-04-21T00:31:07.931Z,67
2023-04-21T00:31:36.912Z,66
2023-04-21T00:31:56.440Z,65
2023-04-21T00:32:27.677Z,66
2023-04-21T00:32:59.808Z,67
2023-04-21T00:33:17.049Z,68
2023-04-21T00:33:37.559Z,70
2023-04-21T00:34:03.701Z,69
2023-04-21T00:34:36.732Z,71
2023-04-21T00:35:08.491Z,71
2023-04-21T00:35:36.774Z,71
2023-04-21T00:35:57.090Z,71
2023-04-21T00:36:28.209Z,72
2023-04-21T00:36:59.670Z,72
2023-04-21T00:37:16.873Z,71
2023-04-21T00:37:37.568Z,68
2023-04-21T00:38:04.087Z,68
2023-04-21T00:38:36.643Z,68
2023-04-21T00:39:08.024Z,67
2023-04-21T00:39:36.741Z,68
2023-04-21T00:39:56.409Z,70
2023-04-21T00:40:28.302Z,70
2023-04-21T00:40:59.765Z,71
2023-04-21T00:41:16.452Z,70
2023-04-21T00:41:37.548Z,71
2023-04-21T00:42:03.863Z,71
2023-04-21T00:42:36.540Z,70
2023-04-21T00:43:07.804Z,72
2023-04-21T00:43:36.808Z,70
2023-04-21T00:43:56.356Z,70
2023-04-21T00:44:27.801Z,69
2023-04-21T00:44:59.726Z,70
2023-04-21T00:45:17.550Z,69
2023-04-21T00:45:37.669Z,70
2023-04-21T00:46:03.847Z,71
2023-04-21T00:46:36.634Z,71
2023-04-21T00:47:07.918Z,69
2023-04-21T00:47:37.349Z,71
2023-04-21T00:47:56.703Z,72
2023-04-21T00:48:27.839Z,70
2023-04-21T00:48:59.847Z,70
2023-04-21T00:49:16.576Z,69
2023-04-21T00:49:37.590Z,70
2023-04-21T00:50:05.341Z,68
2023-04-21T00:50:36.814Z,67
2023-04-21T00:51:07.766Z,66
2023-04-21T00:51:36.586Z,67
2023-04-21T00:51:56.720Z,64
2023-04-21T00:52:27.800Z,63
2023-04-21T00:52:59.786Z,62
2023-04-21T00:53:16.544Z,62
2023-04-21T00:53:38.685Z,62
2023-04-21T00:54:03.830Z,63
2023-04-21T00:54:36.639Z,62
2023-04-21T00:55:08.295Z,62
2023-04-21T00:55:37.087Z,64
2023-04-21T00:55:56.764Z,65
2023-04-21T00:56:27.921Z,64
2023-04-21T00:57:02.280Z,64
2023-04-21T00:57:16.596Z,63
2023-04-21T00:57:37.655Z,64
2023-04-21T00:58:03.880Z,64
2023-04-21T00:58:36.632Z,62
2023-04-21T00:59:07.804Z,63
2023-04-21T00:59:36.752Z,64
2023-04-21T00:59:56.942Z,64
2023-04-21T01:00:29.197Z,65
2023-04-21T01:00:59.848Z,67
2023-04-21T01:01:16.631Z,67
2023-04-21T01:01:37.577Z,68
2023-04-21T01:02:03.974Z,70
2023-04-21T01:03:08.013Z,69
2023-04-21T01:03:37.135Z,68
2023-04-21T01:03:56.498Z,67
2023-04-21T01:04:27.726Z,66
2023-04-21T01:04:59.773Z,64
2023-04-21T01:05:16.993Z,64
2023-04-21T01:05:37.659Z,64
2023-04-21T01:06:03.827Z,65
2023-04-21T01:06:36.599Z,65
2023-04-21T01:07:07.791Z,66
2023-04-21T01:07:36.819Z,66
2023-04-21T01:07:56.424Z,65
2023-04-21T01:08:27.824Z,66
2023-04-21T01:08:59.803Z,68
2023-04-21T01:09:16.627Z,67
2023-04-21T01:09:37.771Z,64
2023-04-21T01:10:05.898Z,64
2023-04-21T01:10:37.032Z,66
2023-04-21T01:11:07.882Z,65
2023-04-21T01:11:36.751Z,65
2023-04-21T01:11:56.535Z,66
2023-04-21T01:12:27.742Z,66
2023-04-21T01:12:59.840Z,68
2023-04-21T01:13:16.477Z,68
2023-04-21T01:13:37.616Z,70
2023-04-21T01:14:03.876Z,70
2023-04-21T01:14:36.704Z,72
2023-04-21T01:15:07.552Z,71
2023-04-21T01:15:35.370Z,72
2023-04-21T01:15:55.982Z,71
2023-04-21T01:16:26.963Z,73
2023-04-21T01:16:58.828Z,74
2023-04-21T01:17:15.511Z,73
2023-04-21T01:17:36.623Z,72
2023-04-21T01:18:02.903Z,71
2023-04-21T01:18:35.525Z,74
2023-04-21T01:19:06.717Z,73
2023-04-21T01:19:35.865Z,73
2023-04-21T01:19:55.454Z,73
2023-04-21T01:20:27.258Z,74
2023-04-21T01:20:58.237Z,73
2023-04-21T01:21:15.589Z,73
2023-04-21T01:21:36.649Z,73
2023-04-21T01:22:02.329Z,73
2023-04-21T01:22:35.700Z,73
2023-04-21T01:23:06.725Z,73
2023-04-21T01:23:35.129Z,72
2023-04-21T01:23:55.756Z,74
2023-04-21T01:24:26.411Z,75
2023-04-21T01:24:59.031Z,74
2023-04-21T01:25:15.948Z,73
2023-04-21T01:25:36.337Z,73
2023-04-21T01:26:02.611Z,73
2023-04-21T01:26:36.057Z,73
2023-04-21T01:27:06.779Z,72
2023-04-21T01:27:35.575Z,73
2023-04-21T01:27:55.368Z,73
2023-04-21T01:28:27.032Z,72
2023-04-21T01:28:58.327Z,72
2023-04-21T01:29:15.636Z,72
2023-04-21T01:29:36.301Z,73
2023-04-21T01:30:04.280Z,72
2023-04-21T01:30:35.906Z,72
2023-04-21T01:31:07.304Z,71
2023-04-21T01:31:35.210Z,71
2023-04-21T01:31:55.506Z,71
2023-04-21T01:32:27.200Z,70
2023-04-21T01:32:58.990Z,69
2023-04-21T01:33:16.162Z,68
2023-04-21T01:33:35.956Z,69
2023-04-21T01:34:02.793Z,70
2023-04-21T01:34:35.422Z,71
2023-04-21T01:35:07.334Z,69
2023-04-21T01:35:35.589Z,69
2023-04-21T01:35:56.063Z,69
2023-04-21T01:36:27.111Z,68
2023-04-21T01:36:59.074Z,68
2023-04-21T01:37:15.180Z,67
2023-04-21T01:37:37.484Z,67
2023-04-21T01:38:03.505Z,65
2023-04-21T01:38:36.704Z,64
2023-04-21T01:39:07.691Z,65
2023-04-21T01:39:36.185Z,64
2023-04-21T01:40:08.170Z,65
2023-04-21T01:40:33.653Z,65
2023-04-21T01:41:02.539Z,65
2023-04-21T01:41:19.329Z,66
2023-04-21T01:41:39.858Z,66
2023-04-21T01:42:05.270Z,67
2023-04-21T01:42:38.365Z,65
2023-04-21T01:43:09.280Z,64
2023-04-21T01:43:37.502Z,64
2023-04-21T01:43:57.319Z,64
2023-04-21T01:44:28.393Z,64
2023-04-21T01:45:01.943Z,65
2023-04-21T01:45:17.541Z,65
2023-04-21T01:45:39.173Z,65
2023-04-21T01:46:04.002Z,64
2023-04-21T01:46:37.638Z,65
2023-04-21T01:47:08.565Z,65
2023-04-21T01:47:37.526Z,66
2023-04-21T01:47:57.224Z,66
2023-04-21T01:48:28.305Z,67
2023-04-21T01:48:59.725Z,67
2023-04-21T01:49:16.644Z,66
2023-04-21T01:49:37.867Z,65
2023-04-21T01:50:05.475Z,64
2023-04-21T01:50:36.809Z,63
2023-04-21T01:51:08.080Z,63
2023-04-21T01:51:38.046Z,62
2023-04-21T01:51:56.936Z,63
2023-04-21T01:52:27.821Z,62
2023-04-21T01:52:59.757Z,63
2023-04-21T01:53:16.566Z,63
2023-04-21T01:53:37.916Z,62
2023-04-21T01:54:03.707Z,63
2023-04-21T01:54:36.792Z,63
2023-04-21T01:55:08.514Z,64
2023-04-21T01:55:36.730Z,64
2023-04-21T01:55:57.039Z,65
2023-04-21T01:56:28.163Z,65
2023-04-21T01:56:59.827Z,65
2023-04-21T01:57:16.841Z,65
2023-04-21T01:57:37.825Z,64
2023-04-21T01:58:03.849Z,64
2023-04-21T01:58:36.967Z,64
2023-04-21T01:59:07.979Z,64
2023-04-21T01:59:36.831Z,64
2023-04-21T01:59:56.704Z,64
2023-04-21T02:00:29.155Z,64
2023-04-21T02:00:59.762Z,63
2023-04-21T02:01:16.816Z,63
2023-04-21T02:01:37.797Z,63
2023-04-21T02:02:03.885Z,64
2023-04-21T02:02:36.918Z,65
2023-04-21T02:03:08.093Z,65
2023-04-21T02:03:37.124Z,65
2023-04-21T02:03:56.779Z,63
2023-04-21T02:04:28.082Z,62
2023-04-21T02:04:59.739Z,63
2023-04-21T02:05:16.983Z,63
2023-04-21T02:05:37.769Z,62
2023-04-21T02:06:03.782Z,59
2023-04-21T02:06:36.673Z,59
2023-04-21T02:07:08.091Z,60
2023-04-21T02:07:36.876Z,61
2023-04-21T02:07:56.622Z,61
2023-04-21T02:08:27.838Z,61
2023-04-21T02:08:59.909Z,60
2023-04-21T02:09:16.854Z,61
2023-04-21T02:09:37.835Z,61
2023-04-21T02:10:05.659Z,60
2023-04-21T02:10:36.869Z,60
2023-04-21T02:11:08.072Z,61
2023-04-21T02:11:36.750Z,61
2023-04-21T02:11:56.720Z,61
2023-04-21T02:12:28.030Z,63
2023-04-21T02:12:59.840Z,63
2023-04-21T02:13:16.764Z,64
2023-04-21T02:13:38.029Z,63
2023-04-21T02:14:03.751Z,64
2023-04-21T02:14:37.041Z,64
2023-04-21T02:15:09.053Z,65
2023-04-21T02:15:36.942Z,65
2023-04-21T02:16:09.677Z,64
2023-04-21T02:16:27.871Z,64
2023-04-21T02:16:59.701Z,65
2023-04-21T02:17:16.715Z,67
2023-04-21T02:17:37.806Z,68
2023-04-21T02:18:03.756Z,67
2023-04-21T02:18:37.342Z,68
2023-04-21T02:19:08.108Z,68
2023-04-21T02:19:37.251Z,67
2023-04-21T02:19:56.961Z,66
2023-04-21T02:20:28.298Z,64
2023-04-21T02:20:59.984Z,62
2023-04-21T02:21:16.655Z,61
2023-04-21T02:21:38.220Z,62
2023-04-21T02:22:03.761Z,61
2023-04-21T02:22:37.166Z,60
2023-04-21T02:23:08.335Z,60
2023-04-21T02:23:36.944Z,61
2023-04-21T02:23:56.747Z,61
2023-04-21T02:24:27.708Z,61
2023-04-21T02:24:59.736Z,62
2023-04-21T02:25:17.092Z,61
2023-04-21T02:25:37.769Z,60
2023-04-21T02:26:03.764Z,59
2023-04-21T02:26:36.852Z,57
2023-04-21T02:27:08.081Z,57
2023-04-21T02:27:36.812Z,58
2023-04-21T02:27:56.849Z,58
2023-04-21T02:28:27.826Z,58
2023-04-21T02:28:59.968Z,58
2023-04-21T02:29:16.893Z,58
2023-04-21T02:29:37.853Z,58
2023-04-21T02:30:06.010Z,59
2023-04-21T02:30:36.814Z,58
2023-04-21T02:31:08.408Z,56
2023-04-21T02:31:49.624Z,56
2023-04-21T02:32:02.930Z,55
2023-04-21T02:32:27.984Z,54
2023-04-21T02:33:00.170Z,53
2023-04-21T02:33:17.700Z,53
2023-04-21T02:33:37.833Z,52
2023-04-21T02:34:03.768Z,52
2023-04-21T02:34:36.848Z,53
2023-04-21T02:35:08.673Z,53
2023-04-21T02:35:36.771Z,53
2023-04-21T02:35:56.984Z,54
2023-04-21T02:36:27.845Z,53
2023-04-21T02:36:59.872Z,54
2023-04-21T02:37:16.731Z,54
2023-04-21T02:37:37.817Z,54
2023-04-21T02:38:03.818Z,54
2023-04-21T02:38:36.794Z,54
2023-04-21T02:39:08.140Z,54
2023-04-21T02:39:36.876Z,53
2023-04-21T02:39:56.967Z,54
2023-04-21T02:40:28.230Z,54
2023-04-21T02:40:59.862Z,55
2023-04-21T02:41:16.654Z,54
2023-04-21T02:41:37.877Z,55
2023-04-21T02:42:03.810Z,55
2023-04-21T02:42:36.831Z,55
2023-04-21T02:43:08.096Z,55
2023-04-21T02:43:37.896Z,54
2023-04-21T02:43:57.327Z,54
2023-04-21T02:44:27.846Z,54
2023-04-21T02:45:00.048Z,54
2023-04-21T02:45:17.677Z,55
2023-04-21T02:45:37.963Z,53
2023-04-21T02:46:03.960Z,54
2023-04-21T02:46:36.660Z,55
2023-04-21T02:47:08.380Z,54
2023-04-21T02:47:36.816Z,55
2023-04-21T02:47:56.745Z,54
2023-04-21T02:48:27.906Z,56
2023-04-21T02:48:59.861Z,56
2023-04-21T02:49:17.050Z,57
2023-04-21T02:49:37.940Z,56
2023-04-21T02:50:05.399Z,56
2023-04-21T02:50:37.353Z,56
2023-04-21T02:51:08.124Z,57
2023-04-21T02:51:36.997Z,57
2023-04-21T02:51:56.795Z,58
2023-04-21T02:52:27.986Z,58
2023-04-21T02:52:59.746Z,58
2023-04-21T02:53:16.770Z,58
2023-04-21T02:53:37.921Z,59
2023-04-21T02:54:03.758Z,58
2023-04-21T02:54:36.853Z,58
2023-04-21T02:55:08.580Z,58
2023-04-21T02:55:36.776Z,58
2023-04-21T02:55:57.278Z,59
2023-04-21T02:56:27.787Z,58
2023-04-21T02:56:59.703Z,60
2023-04-21T02:57:16.761Z,59
2023-04-21T02:57:37.927Z,59
2023-04-21T02:58:03.697Z,59
2023-04-21T02:58:36.784Z,60
2023-04-21T02:59:08.349Z,61
2023-04-21T02:59:37.249Z,62
2023-04-21T02:59:56.782Z,61
2023-04-21T03:00:28.848Z,60
2023-04-21T03:01:00.279Z,59
2023-04-21T03:01:16.884Z,60
2023-04-21T03:01:38.078Z,58
2023-04-21T03:02:03.929Z,57
2023-04-21T03:02:36.768Z,58
2023-04-21T03:03:08.582Z,58
2023-04-21T03:03:37.148Z,59
2023-04-21T03:03:57.400Z,60
2023-04-21T03:04:28.049Z,60
2023-04-21T03:04:59.897Z,60
2023-04-21T03:05:17.092Z,60
2023-04-21T03:05:37.944Z,60
2023-04-21T03:06:03.787Z,61
2023-04-21T03:06:36.655Z,61
2023-04-21T03:07:08.298Z,61
2023-04-21T03:07:36.708Z,61
2023-04-21T03:07:57.648Z,61
2023-04-21T03:08:27.830Z,61
2023-04-21T03:09:00.417Z,60
2023-04-21T03:09:16.964Z,59
2023-04-21T03:09:37.935Z,59
2023-04-21T03:10:05.404Z,60
2023-04-21T03:10:36.612Z,62
2023-04-21T03:11:08.138Z,62
2023-04-21T03:11:36.920Z,61
2023-04-21T03:11:56.693Z,63
2023-04-21T03:12:28.008Z,62
2023-04-21T03:13:00.177Z,61
2023-04-21T03:13:16.716Z,61
2023-04-21T03:13:37.764Z,61
2023-04-21T03:14:03.902Z,61
2023-04-21T03:14:36.617Z,60
2023-04-21T03:15:09.475Z,58
2023-04-21T03:15:36.949Z,58
2023-04-21T03:15:57.141Z,58
2023-04-21T03:16:27.766Z,56
2023-04-21T03:16:59.723Z,55
2023-04-21T03:17:16.577Z,56
2023-04-21T03:17:37.831Z,57
2023-04-21T03:18:04.129Z,58
2023-04-21T03:18:36.612Z,58
2023-04-21T03:19:08.008Z,57
2023-04-21T03:19:36.662Z,57
2023-04-21T03:19:56.786Z,57
2023-04-21T03:20:28.360Z,57
2023-04-21T03:20:59.782Z,56
2023-04-21T03:21:16.808Z,55
2023-04-21T03:21:37.955Z,55
2023-04-21T03:22:03.784Z,55
2023-04-21T03:22:37.089Z,54
2023-04-21T03:23:08.185Z,53
2023-04-21T03:23:36.677Z,53
2023-04-21T03:23:56.782Z,54
2023-04-21T03:24:27.801Z,54
2023-04-21T03:24:59.970Z,52
2023-04-21T03:25:32.472Z,52
2023-04-21T03:26:03.752Z,54
2023-04-21T03:26:36.868Z,53
2023-04-21T03:27:09.845Z,53
2023-04-21T03:27:36.722Z,52
2023-04-21T03:27:56.739Z,52
2023-04-21T03:28:27.726Z,52
2023-04-21T03:28:59.756Z,52
2023-04-21T03:29:16.872Z,51
2023-04-21T03:29:37.781Z,50
2023-04-21T03:30:05.992Z,51
2023-04-21T03:30:36.745Z,52
2023-04-21T03:31:08.175Z,53
2023-04-21T03:31:37.132Z,52
2023-04-21T03:31:56.791Z,52
2023-04-21T03:32:27.919Z,52
2023-04-21T03:32:59.820Z,52
2023-04-21T03:33:16.664Z,52
2023-04-21T03:33:37.806Z,52
2023-04-21T03:34:03.776Z,53
2023-04-21T03:34:36.688Z,53
2023-04-21T03:35:08.763Z,52
2023-04-21T03:35:36.786Z,53
2023-04-21T03:35:57.417Z,53
2023-04-21T03:36:27.794Z,53
2023-04-21T03:36:59.921Z,54
2023-04-21T03:37:16.739Z,54
2023-04-21T03:37:37.904Z,54
2023-04-21T03:38:04.280Z,55
2023-04-21T03:38:36.951Z,55
2023-04-21T03:39:19.309Z,55
2023-04-21T03:39:36.825Z,54
2023-04-21T03:39:56.972Z,54
2023-04-21T03:40:28.326Z,55
2023-04-21T03:40:59.882Z,55
2023-04-21T03:41:17.187Z,57
2023-04-21T03:41:37.839Z,57
2023-04-21T03:42:03.737Z,58
2023-04-21T03:42:37.087Z,59
2023-04-21T03:43:08.093Z,59
2023-04-21T03:43:37.059Z,60
2023-04-21T03:43:56.785Z,60
2023-04-21T03:44:27.806Z,59
2023-04-21T03:44:59.771Z,59
2023-04-21T03:45:18.206Z,60
2023-04-21T03:45:38.027Z,60
2023-04-21T03:46:03.886Z,60
2023-04-21T03:46:37.209Z,60
2023-04-21T03:47:08.100Z,59
2023-04-21T03:47:36.751Z,59
2023-04-21T03:47:56.771Z,59
2023-04-21T03:48:27.932Z,60
2023-04-21T03:49:01.861Z,60
2023-04-21T03:49:16.701Z,59
2023-04-21T03:49:38.063Z,58
2023-04-21T03:50:06.370Z,57
2023-04-21T03:50:36.763Z,58
2023-04-21T03:51:08.139Z,57
2023-04-21T03:51:36.872Z,56
2023-04-21T03:51:56.740Z,54
2023-04-21T03:52:27.904Z,55
2023-04-21T03:52:59.712Z,55
2023-04-21T03:53:16.696Z,57
2023-04-21T03:53:38.220Z,57
2023-04-21T03:54:03.743Z,57
2023-04-21T03:54:36.668Z,57
2023-04-21T03:55:08.656Z,57
2023-04-21T03:55:36.726Z,57
2023-04-21T03:55:57.123Z,58
2023-04-21T03:56:27.842Z,58
2023-04-21T03:56:59.747Z,57
2023-04-21T03:57:16.593Z,57
2023-04-21T03:57:37.977Z,58
2023-04-21T03:58:03.862Z,59
2023-04-21T03:58:36.990Z,60
2023-04-21T03:59:08.106Z,60
2023-04-21T03:59:36.765Z,60
2023-04-21T03:59:56.689Z,59
2023-04-21T04:00:29.006Z,61
2023-04-21T04:01:01.076Z,62
2023-04-21T04:01:17.041Z,62
2023-04-21T04:01:38.011Z,62
2023-04-21T04:02:03.999Z,61
2023-04-21T04:02:36.939Z,60
2023-04-21T04:03:08.634Z,61
2023-04-21T04:03:37.117Z,60
2023-04-21T04:03:57.167Z,60
2023-04-21T04:04:28.272Z,58
2023-04-21T04:04:59.976Z,58
2023-04-21T04:05:17.462Z,58
2023-04-21T04:05:38.181Z,58
2023-04-21T04:06:04.063Z,57
2023-04-21T04:06:37.353Z,56
2023-04-21T04:07:08.810Z,57
2023-04-21T04:07:36.856Z,56
2023-04-21T04:07:56.966Z,56
2023-04-21T04:08:28.822Z,56
2023-04-21T04:08:59.994Z,57
2023-04-21T04:09:17.232Z,56
2023-04-21T04:09:38.032Z,57
2023-04-21T04:10:05.462Z,56
2023-04-21T04:10:36.832Z,55
2023-04-21T04:11:08.425Z,55
2023-04-21T04:11:37.361Z,57
2023-04-21T04:11:57.086Z,56
2023-04-21T04:12:28.254Z,58
2023-04-21T04:12:59.970Z,59
2023-04-21T04:13:17.012Z,62
2023-04-21T04:13:37.992Z,62
2023-04-21T04:14:03.972Z,62
2023-04-21T04:14:37.637Z,63
2023-04-21T04:15:09.330Z,64
2023-04-21T04:15:37.602Z,66
2023-04-21T04:15:57.607Z,66
2023-04-21T04:16:28.145Z,67
2023-04-21T04:17:00.165Z,69
2023-04-21T04:17:16.937Z,69
2023-04-21T04:17:38.122Z,69
2023-04-21T04:18:04.108Z,70
2023-04-21T04:18:36.843Z,69
2023-04-21T04:19:08.387Z,69
2023-04-21T04:19:37.095Z,69
2023-04-21T04:19:57.052Z,69
2023-04-21T04:20:28.561Z,68
2023-04-21T04:20:59.975Z,69
2023-04-21T04:21:16.858Z,67
2023-04-21T04:21:37.996Z,66
2023-04-21T04:22:04.036Z,66
2023-04-21T04:22:37.181Z,66
2023-04-21T04:23:08.677Z,67
2023-04-21T04:23:37.162Z,67
2023-04-21T04:23:57.111Z,67
2023-04-21T04:24:28.158Z,65
2023-04-21T04:25:00.730Z,67
2023-04-21T04:25:17.036Z,65
2023-04-21T04:25:38.366Z,63
2023-04-21T04:26:03.989Z,64
2023-04-21T04:26:37.363Z,64
2023-04-21T04:27:08.280Z,64
2023-04-21T04:27:37.704Z,63
2023-04-21T04:27:57.379Z,64
2023-04-21T04:28:28.117Z,65
2023-04-21T04:29:00.018Z,65
2023-04-21T04:29:16.965Z,64
2023-04-21T04:29:38.407Z,63
2023-04-21T04:30:06.157Z,66
2023-04-21T04:30:37.638Z,66
2023-04-21T04:31:08.412Z,64
2023-04-21T04:31:37.828Z,64
2023-04-21T04:31:57.027Z,63
2023-04-21T04:32:28.272Z,65
2023-04-21T04:33:00.088Z,64
2023-04-21T04:33:17.069Z,65
2023-04-21T04:33:37.984Z,64
2023-04-21T04:34:04.077Z,65
2023-04-21T04:34:36.820Z,66
2023-04-21T04:35:09.073Z,67
2023-04-21T04:35:37.273Z,66
2023-04-21T04:35:57.654Z,66
2023-04-21T04:36:28.152Z,66
2023-04-21T04:37:00.135Z,66
2023-04-21T04:37:16.952Z,66
2023-04-21T04:37:38.116Z,67
2023-04-21T04:38:03.997Z,67
2023-04-21T04:38:37.080Z,67
2023-04-21T04:39:09.581Z,66
2023-04-21T04:39:37.429Z,69
2023-04-21T04:39:57.550Z,69
2023-04-21T04:40:28.503Z,69
2023-04-21T04:41:00.056Z,68
2023-04-21T04:41:16.989Z,67
2023-04-21T04:41:37.950Z,67
2023-04-21T04:42:04.063Z,67
2023-04-21T04:42:36.866Z,66
2023-04-21T04:43:08.464Z,65
2023-04-21T04:43:37.088Z,65
2023-04-21T04:43:58.027Z,64
2023-04-21T04:44:28.016Z,64
2023-04-21T04:45:00.017Z,64
2023-04-21T04:45:17.868Z,65
2023-04-21T04:45:38.024Z,66
2023-04-21T04:46:04.062Z,66
2023-04-21T04:46:37.146Z,67
2023-04-21T04:47:08.868Z,68
2023-04-21T04:47:37.293Z,67
2023-04-21T04:47:57.131Z,67
2023-04-21T04:48:28.302Z,66
2023-04-21T04:49:00.050Z,68
2023-04-21T04:49:16.872Z,68
2023-04-21T04:49:38.080Z,71
2023-04-21T04:50:06.751Z,70
2023-04-21T04:50:37.402Z,73
2023-04-21T04:51:08.474Z,73
2023-04-21T04:51:36.847Z,76
2023-04-21T04:51:57.344Z,77
2023-04-21T04:52:28.120Z,77
2023-04-21T04:53:00.145Z,78
2023-04-21T04:53:16.915Z,80
2023-04-21T04:53:38.199Z,80
2023-04-21T04:54:04.033Z,80
2023-04-21T04:54:36.855Z,81
2023-04-21T04:55:08.845Z,81
2023-04-21T04:55:36.898Z,81
2023-04-21T04:55:57.395Z,81
2023-04-21T04:56:28.368Z,82
2023-04-21T04:57:00.132Z,83
2023-04-21T04:57:16.964Z,83
2023-04-21T04:57:38.113Z,82
2023-04-21T04:58:04.067Z,82
2023-04-21T04:58:36.838Z,81
2023-04-21T04:59:08.743Z,81
2023-04-21T04:59:36.848Z,79
2023-04-21T04:59:56.935Z,78
2023-04-21T05:00:29.277Z,76
2023-04-21T05:01:00.002Z,77
2023-04-21T05:01:17.222Z,76
2023-04-21T05:01:39.073Z,75
2023-04-21T05:02:04.135Z,74
2023-04-21T05:02:37.217Z,74
2023-04-21T05:03:08.662Z,74
2023-04-21T05:03:37.121Z,72
2023-04-21T05:03:57.073Z,72
2023-04-21T05:04:28.245Z,72
2023-04-21T05:05:00.168Z,72
2023-04-21T05:05:17.285Z,72
2023-04-21T05:05:38.372Z,72
2023-04-21T05:06:03.983Z,70
2023-04-21T05:06:36.837Z,70
2023-04-21T05:07:08.383Z,72
2023-04-21T05:07:36.864Z,71
2023-04-21T05:07:56.907Z,72
2023-04-21T05:08:28.158Z,74
2023-04-21T05:09:00.117Z,74
2023-04-21T05:09:16.919Z,74
2023-04-21T05:09:38.043Z,73
2023-04-21T05:10:05.627Z,73
2023-04-21T05:10:36.894Z,73
2023-04-21T05:11:08.395Z,71
2023-04-21T05:11:37.130Z,71
2023-04-21T05:11:57.087Z,72
2023-04-21T05:12:28.327Z,74
2023-04-21T05:12:59.958Z,73
2023-04-21T05:13:16.985Z,73
2023-04-21T05:13:40.051Z,74
2023-04-21T05:14:04.017Z,75
2023-04-21T05:14:36.939Z,75
2023-04-21T05:15:09.849Z,77
2023-04-21T05:15:37.612Z,75
2023-04-21T05:15:58.067Z,75
2023-04-21T05:16:28.139Z,76
2023-04-21T05:17:00.250Z,76
2023-04-21T05:17:16.883Z,75
2023-04-21T05:17:38.118Z,75
2023-04-21T05:18:04.105Z,76
2023-04-21T05:18:37.307Z,77
2023-04-21T05:19:08.680Z,77
2023-04-21T05:19:37.329Z,77
2023-04-21T05:19:57.218Z,78
2023-04-21T05:20:28.449Z,79
2023-04-21T05:21:00.562Z,78
2023-04-21T05:21:17.040Z,78
2023-04-21T05:21:37.998Z,78
2023-04-21T05:22:04.081Z,77
2023-04-21T05:22:36.911Z,77
2023-04-21T05:23:08.439Z,77
2023-04-21T05:23:37.315Z,76
2023-04-21T05:23:57.091Z,74
2023-04-21T05:24:28.259Z,75
2023-04-21T05:25:01.223Z,75
2023-04-21T05:25:16.982Z,75
2023-04-21T05:25:38.615Z,74
2023-04-21T05:26:04.464Z,76
2023-04-21T05:26:36.965Z,76
2023-04-21T05:27:08.494Z,78
2023-04-21T05:27:36.922Z,77
2023-04-21T05:27:56.916Z,78
2023-04-21T05:28:28.120Z,77
2023-04-21T05:29:00.079Z,76
2023-04-21T05:29:17.076Z,76
2023-04-21T05:29:37.919Z,76
2023-04-21T05:30:06.592Z,75
2023-04-21T05:30:37.013Z,76
2023-04-21T05:31:08.293Z,75
2023-04-21T05:31:37.422Z,76
2023-04-21T05:31:57.023Z,77
2023-04-21T05:32:28.377Z,78
2023-04-21T05:33:00.248Z,79
2023-04-21T05:33:16.948Z,80
2023-04-21T05:33:38.173Z,81
2023-04-21T05:34:04.132Z,82
2023-04-21T05:34:36.929Z,82
2023-04-21T05:35:09.135Z,81
2023-04-21T05:35:38.100Z,81
2023-04-21T05:35:57.308Z,79
2023-04-21T05:36:28.161Z,78
2023-04-21T05:36:59.999Z,79
2023-04-21T05:37:16.994Z,80
2023-04-21T05:37:38.115Z,80
2023-04-21T05:38:03.989Z,81
2023-04-21T05:38:36.995Z,84
2023-04-21T05:39:09.008Z,84
2023-04-21T05:39:37.571Z,84
2023-04-21T05:39:57.455Z,86
2023-04-21T05:40:28.892Z,87
2023-04-21T05:41:00.334Z,87
2023-04-21T05:41:17.148Z,87
2023-04-21T05:41:38.290Z,87
2023-04-21T05:42:04.227Z,86
2023-04-21T05:42:37.213Z,86
2023-04-21T05:43:08.965Z,84
2023-04-21T05:43:37.248Z,83
2023-04-21T05:43:57.159Z,83
2023-04-21T05:44:28.299Z,84
2023-04-21T05:45:01.403Z,84
2023-04-21T05:45:17.281Z,85
2023-04-21T05:45:38.848Z,86
2023-04-21T05:46:04.327Z,85
2023-04-21T05:46:37.238Z,84
2023-04-21T05:47:08.676Z,83
2023-04-21T05:47:37.206Z,83
2023-04-21T05:47:57.239Z,83
2023-04-21T05:48:28.426Z,82
2023-04-21T05:49:00.246Z,81
2023-04-21T05:49:17.132Z,80
2023-04-21T05:49:38.281Z,79
2023-04-21T05:50:06.656Z,78
2023-04-21T05:50:37.588Z,80
2023-04-21T05:51:08.928Z,82
2023-04-21T05:51:37.152Z,81
2023-04-21T05:51:57.155Z,83
2023-04-21T05:52:28.383Z,83
2023-04-21T05:53:00.384Z,81
2023-04-21T05:53:17.164Z,80
2023-04-21T05:53:38.252Z,80
2023-04-21T05:54:04.143Z,80
2023-04-21T05:54:37.116Z,81
2023-04-21T05:55:08.925Z,81
2023-04-21T05:55:37.175Z,83
2023-04-21T05:55:57.662Z,83
2023-04-21T05:56:28.297Z,84
2023-04-21T05:57:00.288Z,84
2023-04-21T05:57:17.878Z,84
2023-04-21T05:57:38.265Z,84
2023-04-21T05:58:04.323Z,82
2023-04-21T05:58:37.198Z,82
2023-04-21T05:59:08.710Z,82
2023-04-21T05:59:37.726Z,81
2023-04-21T05:59:57.107Z,79
2023-04-21T06:00:29.872Z,78
2023-04-21T06:01:00.324Z,78
2023-04-21T06:01:17.428Z,79
2023-04-21T06:01:38.308Z,79
2023-04-21T06:02:05.538Z,78
2023-04-21T06:02:37.678Z,79
2023-04-21T06:03:08.599Z,77
2023-04-21T06:03:38.356Z,76
2023-04-21T06:03:57.346Z,77
2023-04-21T06:04:28.993Z,76
2023-04-21T06:05:00.972Z,76
2023-04-21T06:05:17.171Z,73
2023-04-21T06:05:38.903Z,72
2023-04-21T06:06:04.279Z,71
2023-04-21T06:06:37.175Z,72
2023-04-21T06:07:08.690Z,72
2023-04-21T06:07:37.229Z,73
2023-04-21T06:07:57.210Z,72
2023-04-21T06:08:28.231Z,72
2023-04-21T06:09:00.533Z,71
2023-04-21T06:09:17.401Z,71
2023-04-21T06:09:38.277Z,71
2023-04-21T06:10:05.945Z,69
2023-04-21T06:10:37.201Z,70
2023-04-21T06:11:08.591Z,71
2023-04-21T06:11:38.400Z,71
2023-04-21T06:11:57.506Z,73
2023-04-21T06:12:28.410Z,72
2023-04-21T06:13:00.285Z,70
2023-04-21T06:13:17.366Z,72
2023-04-21T06:13:39.133Z,72
2023-04-21T06:14:04.193Z,72
2023-04-21T06:14:37.160Z,72
2023-04-21T06:15:09.979Z,73
2023-04-21T06:15:37.189Z,72
2023-04-21T06:15:58.155Z,73
2023-04-21T06:16:28.382Z,74
2023-04-21T06:17:00.259Z,74
2023-04-21T06:17:17.057Z,74
2023-04-21T06:17:38.461Z,73
2023-04-21T06:18:04.282Z,74
2023-04-21T06:18:37.246Z,75
2023-04-21T06:19:08.561Z,75
2023-04-21T06:19:37.148Z,73
2023-04-21T06:19:57.138Z,74
2023-04-21T06:20:29.110Z,74
2023-04-21T06:21:00.404Z,73
2023-04-21T06:21:17.244Z,73